Time,TemperatureF,DewpointF,PressureIn,WindDirection,WindDirectionDegrees,WindSpeedMPH,WindSpeedGustMPH,Humidity,HourlyPrecipIn,Conditions,Clouds,dailyrainin,SoftwareType,DateUTC
2013-01-12 00:10:00,21.9,21.0,30.33,NNW,348,0.0,0.0,97,0.00,,,0.00,weatherlink.com 1.10,2013-01-12 08:10:00,
2013-01-12 00:25:00,21.6,21.0,30.34,NNW,348,0.0,0.0,97,0.00,,,0.00,weatherlink.com 1.10,2013-01-12 08:25:00,
2013-01-12 00:40:00,21.7,21.0,30.34,NNW,348,0.0,0.0,98,0.00,,,0.00,weatherlink.com 1.10,2013-01-12 08:40:00,
2013-01-12 00:55:00,21.7,21.0,30.33,NNW,348,0.0,0.0,98,0.00,,,0.00,weatherlink.com 1.10,2013-01-12 08:55:00,
2013-01-12 01:10:00,21.7,21.0,30.33,NNW,348,0.0,0.0,97,0.00,,,0.00,weatherlink.com 1.10,2013-01-12 09:10:00,
2013-01-12 01:25:00,21.4,21.0,30.33,NNW,348,0.0,0.0,97,0.00,,,0.00,weatherlink.com 1.10,2013-01-12 09:25:00,
2013-01-12 01:40:00,21.6,21.0,30.33,NNW,348,0.0,0.0,98,0.00,,,0.00,weatherlink.com 1.10,2013-01-12 09:40:00,
2013-01-12 01:55:00,21.3,21.0,30.33,NNW,348,0.0,0.0,97,0.00,,,0.00,weatherlink.com 1.10,2013-01-12 09:55:00,
2013-01-12 02:10:00,21.2,21.0,30.34,NNW,348,0.0,0.0,97,0.00,,,0.00,weatherlink.com 1.10,2013-01-12 10:10:00,
2013-01-12 02:25:00,21.3,21.0,30.34,NNW,348,0.0,0.0,98,0.00,,,0.00,weatherlink.com 1.10,2013-01-12 10:25:00,
2013-01-12 02:40:00,21.3,21.0,30.34,NNW,348,0.0,0.0,97,0.00,,,0.00,weatherlink.com 1.10,2013-01-12 10:40:00,
2013-01-12 02:55:00,21.3,21.0,30.35,NNW,348,0.0,0.0,97,0.00,,,0.00,weatherlink.com 1.10,2013-01-12 10:55:00,
2013-01-12 03:10:00,21.3,21.0,30.34,NNW,348,0.0,0.0,97,0.00,,,0.00,weatherlink.com 1.10,2013-01-12 11:10:00,
2013-01-12 03:25:00,21.1,20.0,30.34,NNW,348,0.0,0.0,97,0.00,,,0.00,weatherlink.com 1.10,2013-01-12 11:25:00,
2013-01-12 03:40:00,21.0,20.0,30.34,NNW,348,0.0,0.0,97,0.00,,,0.00,weatherlink.com 1.10,2013-01-12 11:40:00,
2013-01-12 03:55:00,20.2,19.0,30.34,NNW,348,0.0,0.0,96,0.00,,,0.00,weatherlink.com 1.10,2013-01-12 11:55:00,
2013-01-12 04:10:00,19.7,19.0,30.34,NNW,348,0.0,0.0,97,0.00,,,0.00,weatherlink.com 1.10,2013-01-12 12:10:00,
2013-01-12 04:25:00,20.1,19.0,30.34,NNW,348,0.0,0.0,97,0.00,,,0.00,weatherlink.com 1.10,2013-01-12 12:25:00,
2013-01-12 04:41:00,20.6,20.0,30.35,NNW,348,0.0,0.0,98,0.00,,,0.00,weatherlink.com 1.10,2013-01-12 12:41:00,
2013-01-12 04:56:00,20.9,21.0,30.35,NNW,348,0.0,0.0,98,0.00,,,0.00,weatherlink.com 1.10,2013-01-12 12:56:00,
2013-01-12 05:11:00,20.9,21.0,30.35,NNW,348,0.0,0.0,98,0.00,,,0.00,weatherlink.com 1.10,2013-01-12 13:11:00,
2013-01-12 05:26:00,20.5,20.0,30.35,NNW,348,0.0,0.0,97,0.00,,,0.00,weatherlink.com 1.10,2013-01-12 13:26:00,
2013-01-12 05:41:00,20.0,19.0,30.35,NNW,348,0.0,0.0,97,0.00,,,0.00,weatherlink.com 1.10,2013-01-12 13:41:00,
2013-01-12 05:56:00,19.4,19.0,30.35,NNW,348,0.0,0.0,97,0.00,,,0.00,weatherlink.com 1.10,2013-01-12 13:56:00,
2013-01-12 06:11:00,19.2,19.0,30.35,NNW,348,0.0,0.0,97,0.00,,,0.00,weatherlink.com 1.10,2013-01-12 14:11:00,
2013-01-12 06:26:00,19.1,18.0,30.35,NNW,348,0.0,0.0,96,0.00,,,0.00,weatherlink.com 1.10,2013-01-12 14:26:00,
2013-01-12 06:41:00,19.4,19.0,30.36,NNW,348,0.0,0.0,97,0.00,,,0.00,weatherlink.com 1.10,2013-01-12 14:41:00,
2013-01-12 06:56:00,20.0,19.0,30.36,NNW,348,0.0,0.0,97,0.00,,,0.00,weatherlink.com 1.10,2013-01-12 14:56:00,
2013-01-12 07:11:00,20.5,20.0,30.37,NNW,348,0.0,0.0,97,0.00,,,0.00,weatherlink.com 1.10,2013-01-12 15:11:00,
2013-01-12 07:26:00,20.8,20.0,30.37,NNW,348,0.0,0.0,97,0.00,,,0.00,weatherlink.com 1.10,2013-01-12 15:26:00,
2013-01-12 07:41:00,20.8,20.0,30.37,NNW,348,0.0,0.0,97,0.00,,,0.00,weatherlink.com 1.10,2013-01-12 15:41:00,
2013-01-12 07:56:00,20.9,20.0,30.37,NNW,348,0.0,0.0,97,0.00,,,0.00,weatherlink.com 1.10,2013-01-12 15:56:00,
2013-01-12 08:11:00,21.1,20.0,30.37,NNW,348,0.0,0.0,97,0.00,,,0.00,weatherlink.com 1.10,2013-01-12 16:11:00,
2013-01-12 08:26:00,21.5,21.0,30.38,NNW,348,0.0,0.0,97,0.00,,,0.00,weatherlink.com 1.10,2013-01-12 16:26:00,
2013-01-12 08:41:00,22.1,21.0,30.38,NNW,348,0.0,0.0,97,0.00,,,0.00,weatherlink.com 1.10,2013-01-12 16:41:00,
2013-01-12 08:56:00,22.8,22.0,30.38,NNW,348,0.0,0.0,97,0.00,,,0.00,weatherlink.com 1.10,2013-01-12 16:56:00,
2013-01-12 09:11:00,23.3,23.0,30.38,NW,321,0.0,0.0,97,0.00,,,0.00,weatherlink.com 1.10,2013-01-12 17:11:00,
2013-01-12 09:26:00,23.8,23.0,30.39,WNW,289,0.0,0.0,97,0.00,,,0.00,weatherlink.com 1.10,2013-01-12 17:26:00,
2013-01-12 09:41:00,24.2,24.0,30.39,WNW,293,0.0,0.0,97,0.00,,,0.00,weatherlink.com 1.10,2013-01-12 17:41:00,
2013-01-12 09:56:00,24.5,24.0,30.39,WNW,297,0.0,0.0,97,0.00,,,0.00,weatherlink.com 1.10,2013-01-12 17:56:00,
2013-01-12 10:11:00,25.0,24.0,30.39,East,92,0.0,0.0,97,0.00,,,0.00,weatherlink.com 1.10,2013-01-12 18:11:00,
2013-01-12 10:26:00,25.9,25.0,30.40,NW,316,0.0,2.0,97,0.00,,,0.00,weatherlink.com 1.10,2013-01-12 18:26:00,
2013-01-12 10:41:00,26.6,26.0,30.40,SE,137,0.0,1.0,97,0.00,,,0.00,weatherlink.com 1.10,2013-01-12 18:41:00,
2013-01-12 10:56:00,28.0,27.0,30.40,WNW,296,1.0,3.0,96,0.00,,,0.00,weatherlink.com 1.10,2013-01-12 18:56:00,
2013-01-12 11:11:00,28.8,28.0,30.40,WSW,242,0.0,2.0,95,0.00,,,0.00,weatherlink.com 1.10,2013-01-12 19:11:00,
2013-01-12 11:26:00,29.3,28.0,30.39,NW,316,0.0,3.0,93,0.00,,,0.00,weatherlink.com 1.10,2013-01-12 19:26:00,
2013-01-12 11:41:00,29.8,28.0,30.39,NE,49,0.0,3.0,92,0.00,,,0.00,weatherlink.com 1.10,2013-01-12 19:41:00,
2013-01-12 11:56:00,30.3,28.0,30.39,NW,309,2.0,3.0,91,0.00,,,0.00,weatherlink.com 1.10,2013-01-12 19:56:00,
2013-01-12 12:12:00,30.8,28.0,30.38,East,87,0.0,3.0,88,0.00,,,0.00,weatherlink.com 1.10,2013-01-12 20:12:00,
2013-01-12 12:27:00,31.4,28.0,30.38,West,275,0.0,4.0,87,0.00,,,0.00,weatherlink.com 1.10,2013-01-12 20:27:00,
2013-01-12 12:42:00,32.0,28.0,30.37,ENE,58,0.0,3.0,86,0.00,,,0.00,weatherlink.com 1.10,2013-01-12 20:42:00,
2013-01-12 12:57:00,32.5,29.0,30.37,ENE,59,1.0,4.0,86,0.00,,,0.00,weatherlink.com 1.10,2013-01-12 20:57:00,
2013-01-12 13:12:00,33.0,29.0,30.37,NE,45,0.0,5.0,84,0.00,,,0.00,weatherlink.com 1.10,2013-01-12 21:12:00,
2013-01-12 13:27:00,33.4,29.0,30.38,WNW,288,3.0,6.0,82,0.00,,,0.00,weatherlink.com 1.10,2013-01-12 21:27:00,
2013-01-12 13:42:00,33.9,29.0,30.38,WNW,295,2.0,6.0,81,0.00,,,0.00,weatherlink.com 1.10,2013-01-12 21:42:00,
2013-01-12 13:57:00,34.2,29.0,30.39,WNW,289,2.0,8.0,81,0.00,,,0.00,weatherlink.com 1.10,2013-01-12 21:57:00,
2013-01-12 14:12:00,34.9,29.0,30.39,NW,318,1.0,5.0,79,0.00,,,0.00,weatherlink.com 1.10,2013-01-12 22:12:00,
2013-01-12 14:27:00,35.7,29.0,30.39,NE,34,2.0,5.0,76,0.00,,,0.00,weatherlink.com 1.10,2013-01-12 22:27:00,
2013-01-12 14:42:00,34.0,28.0,30.39,West,277,0.0,2.0,79,0.00,,,0.00,weatherlink.com 1.10,2013-01-12 22:42:00,
2013-01-12 14:57:00,34.8,28.0,30.39,West,281,2.0,4.0,77,0.00,,,0.00,weatherlink.com 1.10,2013-01-12 22:57:00,
2013-01-12 15:12:00,35.0,29.0,30.39,North,11,0.0,4.0,78,0.00,,,0.00,weatherlink.com 1.10,2013-01-12 23:12:00,
2013-01-12 15:27:00,34.7,29.0,30.39,NW,307,0.0,6.0,80,0.00,,,0.00,weatherlink.com 1.10,2013-01-12 23:27:00,
2013-01-12 15:42:00,34.4,29.0,30.39,NW,305,2.0,6.0,80,0.00,,,0.00,weatherlink.com 1.10,2013-01-12 23:42:00,
2013-01-12 15:57:00,33.3,28.0,30.39,WNW,290,0.0,3.0,81,0.00,,,0.00,weatherlink.com 1.10,2013-01-12 23:57:00,
2013-01-12 16:27:00,32.1,28.0,30.40,WNW,293,0.0,3.0,83,0.00,,,0.00,weatherlink.com 1.10,2013-01-13 00:27:00,
2013-01-12 16:42:00,31.1,27.0,30.39,West,264,0.0,2.0,85,0.00,,,0.00,weatherlink.com 1.10,2013-01-13 00:42:00,
2013-01-12 16:57:00,30.0,27.0,30.40,West,278,0.0,0.0,89,0.00,,,0.00,weatherlink.com 1.10,2013-01-13 00:57:00,
2013-01-12 17:12:00,28.4,26.0,30.41,West,279,0.0,0.0,91,0.00,,,0.00,weatherlink.com 1.10,2013-01-13 01:12:00,
2013-01-12 17:27:00,27.8,26.0,30.40,West,278,0.0,0.0,92,0.00,,,0.00,weatherlink.com 1.10,2013-01-13 01:27:00,
2013-01-12 17:42:00,27.6,26.0,30.40,West,260,0.0,0.0,92,0.00,,,0.00,weatherlink.com 1.10,2013-01-13 01:42:00,
2013-01-12 17:57:00,27.0,25.0,30.40,West,260,0.0,0.0,93,0.00,,,0.00,weatherlink.com 1.10,2013-01-13 01:57:00,
2013-01-12 18:12:00,26.7,25.0,30.40,West,260,0.0,0.0,94,0.00,,,0.00,weatherlink.com 1.10,2013-01-13 02:12:00,
2013-01-12 18:27:00,26.7,25.0,30.41,East,92,0.0,0.0,94,0.00,,,0.00,weatherlink.com 1.10,2013-01-13 02:27:00,
2013-01-12 18:42:00,26.7,25.0,30.41,SSE,148,0.0,0.0,94,0.00,,,0.00,weatherlink.com 1.10,2013-01-13 02:42:00,
2013-01-12 18:57:00,26.8,25.0,30.41,NE,54,0.0,0.0,94,0.00,,,0.00,weatherlink.com 1.10,2013-01-13 02:57:00,
2013-01-12 19:12:00,26.3,25.0,30.41,NE,54,0.0,0.0,95,0.00,,,0.00,weatherlink.com 1.10,2013-01-13 03:12:00,
2013-01-12 19:27:00,26.2,25.0,30.42,ENE,70,0.0,0.0,95,0.00,,,0.00,weatherlink.com 1.10,2013-01-13 03:27:00,
2013-01-12 19:42:00,26.2,25.0,30.41,East,84,0.0,0.0,95,0.00,,,0.00,weatherlink.com 1.10,2013-01-13 03:42:00,
2013-01-12 19:57:00,25.7,25.0,30.42,North,349,0.0,0.0,95,0.00,,,0.00,weatherlink.com 1.10,2013-01-13 03:57:00,
2013-01-12 20:12:00,26.1,25.0,30.42,ESE,122,0.0,0.0,95,0.00,,,0.00,weatherlink.com 1.10,2013-01-13 04:12:00,
2013-01-12 20:27:00,26.1,25.0,30.42,East,87,0.0,0.0,95,0.00,,,0.00,weatherlink.com 1.10,2013-01-13 04:27:00,
2013-01-12 20:42:00,25.9,25.0,30.42,ESE,109,0.0,0.0,95,0.00,,,0.00,weatherlink.com 1.10,2013-01-13 04:42:00,
2013-01-12 20:57:00,25.7,25.0,30.43,NNW,348,0.0,0.0,95,0.00,,,0.00,weatherlink.com 1.10,2013-01-13 04:57:00,
2013-01-12 21:12:00,25.4,24.0,30.42,ESE,113,0.0,0.0,95,0.00,,,0.00,weatherlink.com 1.10,2013-01-13 05:12:00,
2013-01-12 21:27:00,24.8,24.0,30.43,ESE,113,0.0,0.0,96,0.00,,,0.00,weatherlink.com 1.10,2013-01-13 05:27:00,
2013-01-12 21:42:00,24.4,24.0,30.43,ENE,69,0.0,0.0,96,0.00,,,0.00,weatherlink.com 1.10,2013-01-13 05:42:00,
2013-01-12 21:57:00,24.5,24.0,30.43,East,82,0.0,0.0,96,0.00,,,0.00,weatherlink.com 1.10,2013-01-13 05:57:00,
2013-01-12 22:12:00,24.5,24.0,30.43,ENE,72,0.0,0.0,96,0.00,,,0.00,weatherlink.com 1.10,2013-01-13 06:12:00,
2013-01-12 22:27:00,24.4,24.0,30.44,East,96,0.0,0.0,96,0.00,,,0.00,weatherlink.com 1.10,2013-01-13 06:27:00,
2013-01-12 22:42:00,24.2,23.0,30.44,East,94,0.0,0.0,95,0.00,,,0.00,weatherlink.com 1.10,2013-01-13 06:42:00,
2013-01-12 22:57:00,23.6,23.0,30.44,East,94,0.0,0.0,96,0.00,,,0.00,weatherlink.com 1.10,2013-01-13 06:57:00,
2013-01-12 23:12:00,22.9,22.0,30.44,East,94,0.0,0.0,97,0.00,,,0.00,weatherlink.com 1.10,2013-01-13 07:12:00,
2013-01-12 23:27:00,22.7,22.0,30.45,East,93,0.0,0.0,97,0.00,,,0.00,weatherlink.com 1.10,2013-01-13 07:27:00,
2013-01-12 23:43:00,22.3,22.0,30.45,East,93,0.0,0.0,97,0.00,,,0.00,weatherlink.com 1.10,2013-01-13 07:43:00,
2013-01-12 23:58:00,21.6,21.0,30.45,East,93,0.0,0.0,97,0.00,,,0.00,weatherlink.com 1.10,2013-01-13 07:58:00,